Terminal Aerodrome Forecast
Issued by NWS

Home | Current Version | Previous Version | Text Only | Print | Product List | Glossary Off
Versions: 1 2 3 4 5 6 7 8 9 10 11 12 13 14 15 16 17 18 19 20 21 22 23 24

373
FTUS43 KABR 030522
TAFMBG
TAF
KMBG 030522Z 0306/0406 18011KT P6SM OVC017
     FM030900 18006KT 2SM BR SCT010
     FM031100 17007KT 3/4SM BR SCT010
     FM031500 18009KT P6SM BKN015
     FM031600 18009KT P6SM SCT015=

USA.gov is the U.S. government's official web portal to all federal, state and local government web resources and services.